Time;durP1;ratioP1;P1;durP2;ratioP2;P2;SDS_P1;SDS_P2;PMS_P1;PMS_P2;Temp;Humidity;BMP_temperature;BMP_pressure;BME280_temperature;BME280_humidity;BME280_pressure;Samples;Min_cycle;Max_cycle;Signal;HPM_P1;HPM_P2
2022/09/25 00:00:58;;;;;;;31.15;20.00;;;;;;;7.34;76.89;100583.69;1805072;79;25908;-78
2022/09/25 00:03:28;;;;;;;27.05;18.85;;;;;;;7.33;76.91;100584.70;1800618;79;25798;-78
2022/09/25 00:06:06;;;;;;;26.77;18.92;;;;;;;7.32;77.02;100586.52;1796139;79;25844;-77
2022/09/25 00:08:34;;;;;;;29.95;18.92;;;;;;;7.31;77.20;100588.88;1772581;80;25881;-77
2022/09/25 00:11:08;;;;;;;27.50;19.37;;;;;;;7.30;77.23;100584.52;1777535;80;28179;-77
2022/09/25 00:13:35;;;;;;;25.37;17.87;;;;;;;7.30;77.18;100578.36;1845502;77;25724;-78
2022/09/25 00:16:03;;;;;;;24.55;19.12;;;;;;;7.29;77.09;100579.37;1772178;80;25787;-78
2022/09/25 00:21:16;;;;;;;24.70;17.82;;;;;;;7.27;77.00;100573.38;1795985;79;25765;-78
2022/09/25 00:23:43;;;;;;;23.57;17.02;;;;;;;7.25;76.99;100574.05;1802170;78;27446;-78
2022/09/25 00:26:13;;;;;;;31.87;18.62;;;;;;;7.22;76.95;100568.55;1772692;79;25759;-78
2022/09/25 00:28:41;;;;;;;25.92;18.30;;;;;;;7.19;77.02;100567.53;1793655;79;25779;-78
2022/09/25 00:31:10;;;;;;;28.62;19.77;;;;;;;7.17;77.03;100568.20;1793287;79;25934;-79
2022/09/25 00:33:36;;;;;;;28.38;18.20;;;;;;;7.16;77.08;100577.20;1800745;79;25917;-78
2022/09/25 00:36:07;;;;;;;27.17;19.30;;;;;;;7.15;77.11;100565.36;1792158;79;27434;-78
2022/09/25 00:38:36;;;;;;;31.77;19.73;;;;;;;7.14;77.18;100567.22;1786976;79;25826;-78
2022/09/25 00:41:05;;;;;;;28.95;19.48;;;;;;;7.14;77.20;100563.71;1797392;79;25734;-78
2022/09/25 00:43:36;;;;;;;27.30;18.07;;;;;;;7.12;77.32;100563.86;1799135;79;25930;-78
2022/09/25 00:46:08;;;;;;;28.05;18.50;;;;;;;7.11;77.34;100564.88;1787925;79;25939;-78
2022/09/25 00:48:35;;;;;;;27.85;18.10;;;;;;;7.08;77.39;100563.05;1779053;79;27473;-78
2022/09/25 00:51:04;;;;;;;22.70;16.65;;;;;;;7.05;77.59;100561.54;1790352;79;25762;-78
2022/09/25 00:53:36;;;;;;;23.22;17.23;;;;;;;7.03;77.61;100553.38;1795785;79;25813;-78
2022/09/25 00:56:03;;;;;;;23.95;17.17;;;;;;;7.01;77.67;100561.54;1804278;78;25968;-78
2022/09/25 00:58:32;;;;;;;24.02;17.25;;;;;;;6.98;77.79;100557.86;1797198;79;25744;-78
2022/09/25 01:00:59;;;;;;;20.10;15.63;;;;;;;6.98;77.87;100556.04;1788900;79;28636;-78
2022/09/25 01:03:27;;;;;;;21.57;15.83;;;;;;;6.97;77.88;100558.35;1786229;79;25886;-78
2022/09/25 01:05:54;;;;;;;23.42;16.23;;;;;;;6.97;77.91;100558.87;1796963;79;25817;-78
2022/09/25 01:08:25;;;;;;;17.87;15.10;;;;;;;6.94;77.89;100559.19;1788924;79;26062;-78
2022/09/25 01:10:51;;;;;;;22.25;15.38;;;;;;;6.92;77.92;100559.36;1797054;79;25953;-78
2022/09/25 01:13:19;;;;;;;22.48;15.75;;;;;;;6.88;77.96;100556.70;1798435;79;27442;-78
2022/09/25 01:16:18;;;;;;;19.45;15.25;;;;;;;6.85;77.98;100555.69;1793235;79;25754;-78
2022/09/25 01:19:08;;;;;;;21.65;15.55;;;;;;;6.82;77.93;100548.02;1795287;79;25826;-78
2022/09/25 01:21:53;;;;;;;20.65;15.23;;;;;;;6.80;77.94;100554.00;1785896;79;26547;-78
2022/09/25 01:24:37;;;;;;;22.85;15.88;;;;;;;6.76;77.98;100547.34;1803011;78;25830;-78
2022/09/25 01:27:15;;;;;;;20.70;15.88;;;;;;;6.74;78.08;100548.00;1798310;79;28270;-78
2022/09/25 01:29:59;;;;;;;26.68;18.50;;;;;;;6.73;78.18;100543.69;1757368;79;26112;-78
2022/09/25 01:32:50;;;;;;;26.73;18.45;;;;;;;6.75;78.27;100548.84;1783979;78;25790;-79
2022/09/25 01:35:38;;;;;;;;;;;;;;;6.74;78.33;100551.99;1793861;79;26501;-78
2022/09/25 01:38:35;;;;;;;21.87;17.75;;;;;;;6.72;78.41;100547.83;1807920;79;25788;-78
2022/09/25 01:41:34;;;;;;;24.50;17.80;;;;;;;6.68;78.55;100542.50;1807970;79;27587;-77
2022/09/25 01:44:27;;;;;;;25.97;18.17;;;;;;;6.66;78.62;100541.83;1807811;78;25719;-78
2022/09/25 01:47:02;;;;;;;23.62;18.00;;;;;;;6.63;78.59;100542.17;1809227;78;26393;-78
2022/09/25 01:49:48;;;;;;;25.17;18.67;;;;;;;6.60;78.73;100538.00;1771601;80;25835;-78
2022/09/25 01:52:20;;;;;;;26.17;17.02;;;;;;;6.58;78.68;100537.83;1760912;80;26660;-78
2022/09/25 01:54:54;;;;;;;22.75;16.37;;;;;;;6.54;78.45;100542.65;1775937;80;27518;-78
2022/09/25 01:57:35;;;;;;;23.95;17.48;;;;;;;6.51;78.39;100542.12;1779597;80;25983;-78
2022/09/25 02:00:08;;;;;;;;;;;;;;;6.49;78.56;100546.77;1781677;80;25905;-78
2022/09/25 02:02:54;;;;;;;27.60;16.60;;;;;;;6.45;78.57;100536.96;1780318;80;26322;-78
2022/09/25 02:05:41;;;;;;;23.27;17.85;;;;;;;6.42;78.48;100537.76;1779231;80;25838;-78
2022/09/25 02:08:18;;;;;;;26.05;18.27;;;;;;;6.38;78.34;100543.91;1782388;80;27446;-78
2022/09/25 02:10:55;;;;;;;27.60;18.80;;;;;;;6.34;78.26;100541.24;1771860;80;25775;-78
2022/09/25 02:13:27;;;;;;;38.40;21.52;;;;;;;6.34;78.67;100536.41;1779084;80;25909;-78
2022/09/25 02:16:01;;;;;;;25.12;18.42;;;;;;;6.32;79.19;100530.42;1779809;80;26033;-78
2022/09/25 02:21:28;;;;;;;21.85;16.45;;;;;;;6.27;79.44;100532.23;1772899;80;28288;-78
2022/09/25 02:24:19;;;;;;;20.70;16.12;;;;;;;6.25;78.94;100530.23;1779287;80;25901;-78
2022/09/25 02:26:46;;;;;;;25.35;16.87;;;;;;;6.23;78.96;100529.06;1773262;80;25945;-77
2022/09/25 02:29:14;;;;;;;25.60;17.85;;;;;;;6.21;78.84;100525.73;1775676;80;26742;-77
2022/09/25 02:31:46;;;;;;;24.30;17.05;;;;;;;6.18;78.78;100519.88;1782179;80;25935;-77
2022/09/25 02:34:13;;;;;;;26.48;17.37;;;;;;;6.17;78.76;100520.41;1842825;77;27667;-77
2022/09/25 02:36:39;;;;;;;26.93;18.87;;;;;;;6.15;78.83;100523.73;1837869;77;26451;-77
2022/09/25 02:39:08;;;;;;;25.25;18.35;;;;;;;6.14;78.79;100520.72;1843729;77;25771;-77
2022/09/25 02:41:58;;;;;;;28.80;20.25;;;;;;;6.15;78.82;100522.88;1755174;80;25774;-78
2022/09/25 02:44:49;;;;;;;30.20;21.15;;;;;;;6.15;78.89;100526.88;1806608;79;25712;-77
2022/09/25 02:47:44;;;;;;;32.58;20.72;;;;;;;6.14;78.96;100519.38;1766179;80;27452;-77
2022/09/25 02:50:28;;;;;;;27.82;19.98;;;;;;;6.11;78.90;100515.73;1832907;76;25847;-77
2022/09/25 02:53:14;;;;;;;28.05;20.48;;;;;;;6.10;78.94;100512.72;1840516;77;25825;-77
2022/09/25 02:55:49;;;;;;;28.12;20.68;;;;;;;6.11;79.07;100512.23;1835207;76;26399;-77
2022/09/25 02:58:26;;;;;;;28.17;21.40;;;;;;;6.09;79.01;100508.38;1843529;77;25953;-77
2022/09/25 03:00:55;;;;;;;31.12;20.45;;;;;;;6.09;78.97;100515.55;1838838;77;28474;-77
2022/09/25 03:03:24;;;;;;;29.37;20.30;;;;;;;6.09;78.88;100514.22;1770700;80;25857;-77
2022/09/25 03:05:55;;;;;;;26.75;19.92;;;;;;;6.07;78.93;100511.70;1777010;80;25727;-77
2022/09/25 03:08:40;;;;;;;28.45;19.85;;;;;;;6.05;78.91;100510.22;1797083;79;25782;-77
2022/09/25 03:11:16;;;;;;;28.57;19.30;;;;;;;6.04;79.12;100509.87;1769858;80;25705;-77
2022/09/25 03:13:43;;;;;;;28.12;19.55;;;;;;;6.01;79.31;100510.17;1839841;77;28224;-77
2022/09/25 03:16:21;;;;;;;22.82;17.98;;;;;;;5.96;79.45;100512.01;1826955;77;26253;-77
2022/09/25 03:18:48;;;;;;;25.88;17.90;;;;;;;5.97;79.36;100510.16;1839990;77;25816;-77
2022/09/25 03:21:14;;;;;;;24.23;18.02;;;;;;;5.95;79.05;100506.34;1770641;80;25786;-77
2022/09/25 03:23:41;;;;;;;28.92;18.45;;;;;;;5.92;78.92;100505.31;1772277;80;26588;-77
2022/09/25 03:26:07;;;;;;;24.47;18.95;;;;;;;5.89;78.83;100505.66;1806825;78;27455;-77
2022/09/25 03:28:34;;;;;;;25.82;18.45;;;;;;;5.87;78.86;100506.31;1792894;79;25866;-77
2022/09/25 03:31:05;;;;;;;26.97;19.40;;;;;;;5.85;79.05;100505.64;1790861;79;26481;-77
2022/09/25 03:33:36;;;;;;;;;;;;;;;5.83;79.05;100502.77;1772179;79;26580;-77
2022/09/25 03:36:09;;;;;;;25.82;17.42;;;;;;;5.79;78.88;100503.59;1791303;79;25991;-77
2022/09/25 03:38:37;;;;;;;32.23;18.15;;;;;;;5.75;78.80;100504.06;1785858;79;27660;-77
2022/09/25 03:41:07;;;;;;;25.23;17.35;;;;;;;5.73;78.88;100507.37;1778268;79;25860;-77
2022/09/25 03:43:39;;;;;;;26.93;17.40;;;;;;;5.71;78.95;100508.03;1785750;78;25888;-77
2022/09/25 03:46:09;;;;;;;24.02;16.95;;;;;;;5.69;78.92;100503.37;1775061;79;26247;-77
2022/09/25 03:48:37;;;;;;;25.77;17.65;;;;;;;5.66;78.78;100508.98;1781310;79;25809;-77
2022/09/25 03:51:04;;;;;;;25.88;18.20;;;;;;;5.64;78.75;100503.00;1777020;79;27428;-77
2022/09/25 03:53:32;;;;;;;27.40;19.17;;;;;;;5.63;78.74;100499.98;1790001;79;25886;-77
2022/09/25 03:56:02;;;;;;;28.60;19.73;;;;;;;5.62;78.90;100503.65;1779048;78;25542;-77
2022/09/25 03:58:29;;;;;;;25.10;19.17;;;;;;;5.61;79.10;100501.48;1769474;78;26318;-77
2022/09/25 04:00:56;;;;;;;24.57;18.35;;;;;;;5.59;79.15;100502.63;1772861;78;25908;-77
2022/09/25 04:03:29;;;;;;;24.00;18.50;;;;;;;5.58;79.01;100504.95;1776472;78;28337;-77
2022/09/25 04:05:58;;;;;;;24.47;18.07;;;;;;;5.56;78.98;100507.75;1772752;78;25831;-77
2022/09/25 04:08:26;;;;;;;27.15;20.35;;;;;;;5.54;79.10;100505.75;1770350;78;26375;-77
2022/09/25 04:11:01;;;;;;;26.80;19.25;;;;;;;5.51;79.05;100504.75;1788399;78;26569;-77
2022/09/25 04:13:31;;;;;;;29.60;21.12;;;;;;;5.51;79.07;100501.25;1793981;79;25258;-77
2022/09/25 04:16:00;;;;;;;25.95;19.60;;;;;;;5.48;79.12;100503.72;1784661;79;27410;-77
2022/09/25 04:18:30;;;;;;;31.65;20.95;;;;;;;5.47;79.31;100508.71;1790437;78;26491;-77
2022/09/25 04:21:05;;;;;;;29.18;20.08;;;;;;;5.45;79.20;100507.52;1789783;78;26400;-77
2022/09/25 04:23:32;;;;;;;26.95;19.23;;;;;;;5.44;79.20;100499.71;1791537;79;25783;-77
2022/09/25 04:25:58;;;;;;;28.75;20.40;;;;;;;5.44;79.25;100499.71;1786815;78;25812;-77
2022/09/25 04:28:25;;;;;;;26.97;20.23;;;;;;;5.45;79.32;100504.05;1786562;79;27617;-78
2022/09/25 04:30:51;;;;;;;35.05;22.77;;;;;;;5.47;79.32;100498.09;1755431;79;26470;-77
2022/09/25 04:36:04;;;;;;;31.75;22.30;;;;;;;5.46;79.71;100494.59;1792242;79;26449;-77
2022/09/25 04:38:31;;;;;;;29.72;22.27;;;;;;;5.46;79.65;100494.59;1772369;79;25931;-77
2022/09/25 04:41:00;;;;;;;33.10;22.93;;;;;;;5.48;79.84;100490.44;1792462;78;28233;-77
2022/09/25 04:43:31;;;;;;;37.35;24.80;;;;;;;5.48;80.19;100486.45;1784583;80;25763;-77
2022/09/25 04:46:02;;;;;;;;;;;;;;;5.48;80.55;100483.80;1840347;77;25781;-77
2022/09/25 04:48:30;;;;;;;27.62;19.73;;;;;;;5.48;81.04;100485.97;1834673;76;25789;-77
2022/09/25 04:50:57;;;;;;;32.10;22.87;;;;;;;5.47;81.32;100482.95;1842540;77;25661;-77
2022/09/25 04:53:33;;;;;;;29.30;22.58;;;;;;;5.49;81.26;100490.27;1843188;77;27447;-77
2022/09/25 04:56:06;;;;;;;31.82;22.80;;;;;;;5.51;81.30;100483.50;1849759;77;25559;-77
2022/09/25 04:58:34;;;;;;;31.30;22.07;;;;;;;5.52;81.25;100478.50;1783977;80;25509;-77
2022/09/25 05:01:07;;;;;;;30.97;21.97;;;;;;;5.54;81.29;100479.70;1799928;78;25752;-77
2022/09/25 05:03:35;;;;;;;31.52;22.10;;;;;;;5.55;81.44;100479.53;1786750;79;25880;-77
2022/09/25 05:06:01;;;;;;;29.32;21.52;;;;;;;5.58;81.44;100479.72;1839434;77;28095;-77
2022/09/25 05:08:28;;;;;;;34.00;23.62;;;;;;;5.61;81.52;100484.70;1770944;80;26514;-77
2022/09/25 05:10:54;;;;;;;36.45;24.75;;;;;;;5.64;81.62;100487.89;1794759;78;26432;-77
2022/09/25 05:13:20;;;;;;;33.85;25.00;;;;;;;5.67;81.84;100487.56;1796497;78;26545;-77
2022/09/25 05:15:47;;;;;;;37.25;24.57;;;;;;;5.71;82.15;100484.92;1792836;78;26105;-77
2022/09/25 05:18:20;;;;;;;34.20;24.70;;;;;;;5.74;82.30;100493.08;1803177;78;27390;-77
2022/09/25 05:20:48;;;;;;;32.73;25.10;;;;;;;5.77;82.43;100495.42;1772368;79;25873;-77
2022/09/25 05:23:16;;;;;;;36.35;25.20;;;;;;;5.81;82.79;100505.59;1834952;76;25768;-77
2022/09/25 05:25:42;;;;;;;36.00;25.57;;;;;;;5.84;82.90;100501.30;1841186;77;25774;-77
2022/09/25 05:28:10;;;;;;;34.63;25.75;;;;;;;5.87;83.00;100510.30;1773099;80;26476;-76
2022/09/25 05:30:37;;;;;;;32.65;24.07;;;;;;;5.90;83.10;100511.81;1765221;79;27449;-77
2022/09/25 05:33:04;;;;;;;30.65;22.87;;;;;;;5.93;83.03;100519.45;1778640;80;25748;-77
2022/09/25 05:35:32;;;;;;;33.23;25.02;;;;;;;5.91;82.88;100518.78;1768662;79;25804;-77
2022/09/25 05:37:58;;;;;;;35.80;25.37;;;;;;;5.94;83.09;100521.13;1783546;79;25827;-77
2022/09/25 05:40:26;;;;;;;33.90;24.30;;;;;;;5.97;83.17;100519.47;1777396;79;25729;-77
2022/09/25 05:42:54;;;;;;;33.90;23.87;;;;;;;6.00;83.31;100523.98;1787363;79;27466;-77
2022/09/25 05:45:22;;;;;;;37.93;23.32;;;;;;;6.04;83.49;100526.66;1792504;79;25628;-77
2022/09/25 05:47:48;;;;;;;35.00;22.90;;;;;;;6.05;83.76;100519.53;1762010;79;26444;-77
2022/09/25 05:50:16;;;;;;;30.95;22.87;;;;;;;6.07;83.90;100522.86;1798139;79;25755;-77
2022/09/25 05:52:43;;;;;;;36.15;24.80;;;;;;;6.11;84.12;100528.19;1799884;78;25858;-77
2022/09/25 05:55:10;;;;;;;31.52;23.35;;;;;;;6.14;84.33;100525.19;1799127;79;28190;-77
2022/09/25 05:57:37;;;;;;;30.92;22.75;;;;;;;6.16;84.66;100525.37;1811850;79;25563;-78
2022/09/25 06:00:10;;;;;;;31.40;21.50;;;;;;;6.18;84.89;100525.20;1797775;79;25600;-77
2022/09/25 06:02:39;;;;;;;31.12;23.40;;;;;;;6.20;85.09;100525.39;1807338;78;25865;-78
2022/09/25 06:05:08;;;;;;;28.57;21.17;;;;;;;6.22;85.28;100522.59;1809124;79;25742;-77
2022/09/25 06:07:35;;;;;;;29.45;21.20;;;;;;;6.27;85.58;100520.26;1805159;79;27512;-77
2022/09/25 06:10:03;;;;;;;36.83;22.75;;;;;;;6.31;85.69;100518.13;1810424;79;26480;-78
2022/09/25 06:12:30;;;;;;;34.95;24.18;;;;;;;6.36;86.03;100518.46;1800473;78;25894;-77
2022/09/25 06:14:57;;;;;;;34.48;24.47;;;;;;;6.41;86.29;100519.66;1805393;79;26519;-77
2022/09/25 06:17:23;;;;;;;36.48;26.55;;;;;;;6.47;86.74;100517.67;1790764;78;25935;-77
2022/09/25 06:19:49;;;;;;;41.40;26.60;;;;;;;6.55;87.09;100520.34;1789249;79;27500;-78
2022/09/25 06:22:15;;;;;;;35.05;24.90;;;;;;;6.62;87.34;100517.38;1793403;78;25302;-77
2022/09/25 06:24:42;;;;;;;36.75;25.50;;;;;;;6.70;87.82;100519.21;1802013;79;25738;-77
2022/09/25 06:27:08;;;;;;;32.93;25.65;;;;;;;6.76;88.09;100519.39;1801690;79;26538;-77
2022/09/25 06:29:35;;;;;;;36.85;25.23;;;;;;;6.82;88.35;100517.39;1805949;78;25750;-78
2022/09/25 06:32:02;;;;;;;37.08;26.52;;;;;;;6.90;88.64;100514.77;1797580;79;27438;-77
2022/09/25 06:34:29;;;;;;;41.40;28.00;;;;;;;7.00;88.91;100526.08;1783453;79;25773;-78
2022/09/25 06:36:55;;;;;;;40.25;28.27;;;;;;;7.08;89.16;100521.24;1800461;79;26002;-78
2022/09/25 06:39:21;;;;;;;41.45;28.77;;;;;;;7.19;89.74;100523.58;1806212;79;25890;-77
2022/09/25 06:41:48;;;;;;;35.30;28.02;;;;;;;7.28;89.55;100520.41;1804247;79;25808;-78
2022/09/25 06:44:16;;;;;;;41.98;30.02;;;;;;;7.38;89.77;100513.91;1801014;79;27597;-78
2022/09/25 06:46:43;;;;;;;44.27;31.02;;;;;;;7.47;90.05;100512.06;1799752;78;25985;-77
2022/09/25 06:49:12;;;;;;;44.33;32.15;;;;;;;7.57;90.35;100505.55;1805151;78;26416;-77
2022/09/25 06:51:39;;;;;;;50.10;33.08;;;;;;;7.68;90.51;100492.36;1800462;77;26030;-78
2022/09/25 06:54:05;;;;;;;48.75;32.73;;;;;;;7.79;90.94;100494.66;1802096;78;25740;-77
2022/09/25 06:56:31;;;;;;;51.05;33.83;;;;;;;7.88;90.82;100497.64;1800513;79;27437;-77
2022/09/25 06:58:58;;;;;;;41.77;30.72;;;;;;;7.97;90.80;100496.62;1803558;78;25989;-78
2022/09/25 07:01:24;;;;;;;44.33;31.60;;;;;;;8.05;90.73;100504.59;1803815;78;25742;-77
2022/09/25 07:03:50;;;;;;;48.00;32.93;;;;;;;8.14;90.84;100499.55;1781643;79;26009;-77
2022/09/25 07:06:20;;;;;;;45.15;31.70;;;;;;;8.25;90.94;100503.67;1785070;80;26094;-78
2022/09/25 07:08:48;;;;;;;46.43;32.17;;;;;;;8.35;90.84;100502.48;1846059;77;28264;-78
2022/09/25 07:11:22;;;;;;;44.30;30.72;;;;;;;8.45;90.90;100500.42;1777495;80;26000;-78
2022/09/25 07:13:51;;;;;;;45.03;29.90;;;;;;;8.55;90.87;100499.68;1766500;80;25774;-78
2022/09/25 07:16:19;;;;;;;42.08;30.75;;;;;;;8.66;90.72;100498.45;1783869;79;26542;-78
2022/09/25 07:18:46;;;;;;;42.65;29.05;;;;;;;8.75;90.37;100498.73;1840985;77;25758;-77
2022/09/25 07:21:18;;;;;;;42.35;29.55;;;;;;;8.85;90.57;100498.51;1776486;80;28466;-78
2022/09/25 07:23:49;;;;;;;44.15;29.37;;;;;;;8.96;90.69;100498.09;1803847;78;25845;-77
2022/09/25 07:26:23;;;;;;;33.83;26.25;;;;;;;9.08;90.90;100497.98;1791383;78;25828;-77
2022/09/25 07:28:57;;;;;;;43.78;30.00;;;;;;;9.19;91.21;100500.23;1791379;79;26382;-78
2022/09/25 07:31:27;;;;;;;49.38;29.72;;;;;;;9.30;90.75;100502.48;1791404;79;25810;-78
2022/09/25 07:33:55;;;;;;;46.80;29.80;;;;;;;9.43;90.60;100498.66;1791413;79;27476;-77
2022/09/25 07:36:22;;;;;;;44.10;29.18;;;;;;;9.53;89.94;100500.59;1736302;80;26399;-78
2022/09/25 07:38:51;;;;;;;45.92;29.92;;;;;;;9.66;90.29;100499.45;1795419;79;26497;-78
2022/09/25 07:41:21;;;;;;;46.60;31.87;;;;;;;9.77;90.01;100494.97;1793616;78;26014;-77
2022/09/25 07:43:56;;;;;;;45.75;31.17;;;;;;;9.90;89.69;100502.38;1781124;80;26460;-79
2022/09/25 07:46:25;;;;;;;41.00;29.80;;;;;;;10.00;89.40;100489.54;1778426;80;27465;-83
2022/09/25 07:48:52;;;;;;;52.60;33.08;;;;;;;10.11;89.38;100498.47;1782877;80;26484;-85
2022/09/25 07:51:22;;;;;;;46.63;32.63;;;;;;;10.22;89.39;100496.66;1836434;77;25835;-85
2022/09/25 07:53:49;;;;;;;50.43;33.33;;;;;;;10.32;89.24;100491.84;1762095;80;25840;-85
2022/09/25 07:56:16;;;;;;;47.33;30.55;;;;;;;10.42;88.98;100488.84;1792340;79;25746;-85
2022/09/25 07:58:44;;;;;;;43.02;29.25;;;;;;;10.53;89.25;100493.72;1782661;79;27451;-84
2022/09/25 08:01:12;;;;;;;39.23;27.87;;;;;;;10.65;89.70;100492.20;1792942;79;25887;-86
2022/09/25 08:03:39;;;;;;;40.12;27.82;;;;;;;10.75;89.45;100485.53;1782002;79;25834;-80
2022/09/25 08:06:10;;;;;;;41.08;27.75;;;;;;;10.88;89.08;100495.02;1798015;79;25826;-81
2022/09/25 08:08:37;;;;;;;45.17;31.45;;;;;;;11.00;88.97;100489.16;1808905;77;25585;-83
2022/09/25 08:11:10;;;;;;;46.60;29.65;;;;;;;11.12;88.85;100483.61;1781807;79;27611;-83
2022/09/25 08:13:37;;;;;;;52.17;35.40;;;;;;;11.22;88.53;100476.06;1790500;78;25818;-84
2022/09/25 08:16:10;;;;;;;48.17;31.97;;;;;;;11.32;88.20;100481.91;1789613;78;25804;-83
2022/09/25 08:18:35;;;;;;;47.53;33.30;;;;;;;11.43;88.14;100480.05;1799905;78;25782;-85
2022/09/25 08:21:03;;;;;;;51.33;34.92;;;;;;;11.51;87.79;100483.91;1810094;79;25818;-85
2022/09/25 08:23:31;;;;;;;45.45;32.50;;;;;;;11.58;87.83;100480.77;1802594;79;27466;-87
2022/09/25 08:25:58;;;;;;;42.05;29.30;;;;;;;11.68;88.55;100469.20;1798863;78;25834;-84
2022/09/25 08:28:24;;;;;;;38.48;27.70;;;;;;;11.76;87.92;100465.55;1805776;79;25318;-81
2022/09/25 08:30:51;;;;;;;38.92;27.42;;;;;;;11.85;88.50;100469.70;1805816;79;26385;-75
2022/09/25 08:33:17;;;;;;;37.45;26.45;;;;;;;11.93;87.96;100472.25;1804558;79;25901;-77
2022/09/25 08:35:47;;;;;;;38.75;26.90;;;;;;;12.00;87.68;100470.41;1804671;79;27597;-76
2022/09/25 08:38:14;;;;;;;40.60;26.50;;;;;;;12.09;87.81;100467.87;1780514;79;25938;-77
2022/09/25 08:40:57;;;;;;;31.00;24.63;;;;;;;12.17;87.80;100472.56;1793406;79;25853;-77
2022/09/25 08:43:25;;;;;;;32.40;24.90;;;;;;;12.28;88.18;100473.84;1783646;79;26010;-77
2022/09/25 08:49:00;;;;;;;36.88;24.75;;;;;;;12.48;86.95;100470.73;1796903;78;27504;-77
2022/09/25 08:51:30;;;;;;;31.70;23.40;;;;;;;12.60;86.44;100468.27;1798953;78;26433;-78
2022/09/25 08:53:59;;;;;;;30.08;23.85;;;;;;;12.71;86.16;100460.45;1797785;78;26392;-77
2022/09/25 08:56:31;;;;;;;37.40;26.68;;;;;;;12.80;85.90;100459.74;1797555;78;25929;-77
2022/09/25 08:59:22;;;;;;;41.95;29.32;;;;;;;12.91;85.84;100459.14;1770890;80;25779;-77
2022/09/25 09:02:04;;;;;;;30.92;24.20;;;;;;;12.98;85.50;100451.92;1783903;79;27511;-78
2022/09/25 09:04:36;;;;;;;37.63;23.52;;;;;;;13.06;85.57;100453.09;1772921;79;25692;-78
2022/09/25 09:07:32;;;;;;;35.25;24.63;;;;;;;13.13;84.90;100438.59;1783082;78;25712;-78
2022/09/25 09:10:16;;;;;;;31.27;21.57;;;;;;;13.21;85.06;100446.98;1772412;80;25934;-78
2022/09/25 09:12:48;;;;;;;35.10;22.98;;;;;;;13.30;84.64;100438.19;1790201;79;25707;-78
2022/09/25 09:15:41;;;;;;;30.95;22.77;;;;;;;13.38;84.54;100438.80;1810316;79;27461;-78
2022/09/25 09:18:21;;;;;;;29.12;21.40;;;;;;;13.47;84.38;100435.38;1806910;78;25739;-77
2022/09/25 09:20:55;;;;;;;28.92;20.32;;;;;;;13.56;83.91;100434.09;1804541;79;25696;-78
2022/09/25 09:23:39;;;;;;;26.62;19.95;;;;;;;13.65;84.08;100426.95;1781173;79;25914;-77
2022/09/25 09:26:15;;;;;;;19.92;14.45;;;;;;;13.75;83.32;100424.63;1799528;79;25536;-77
2022/09/25 09:28:58;;;;;;;22.67;14.68;;;;;;;13.89;83.04;100422.73;1788031;79;27437;-77
2022/09/25 09:31:33;;;;;;;18.45;14.07;;;;;;;14.01;82.38;100421.58;1793228;79;25785;-78
2022/09/25 09:34:44;;;;;;;19.45;14.30;;;;;;;14.10;81.66;100415.72;1805372;79;25771;-78
2022/09/25 09:37:39;;;;;;;18.45;13.65;;;;;;;14.20;81.24;100413.92;1770180;79;25802;-78
2022/09/25 09:40:37;;;;;;;19.70;14.70;;;;;;;14.27;80.81;100412.84;1788075;79;25792;-78
2022/09/25 09:43:51;;;;;;;19.20;15.20;;;;;;;14.30;80.49;100412.97;1793419;78;27519;-78
2022/09/25 09:46:25;;;;;;;20.48;15.68;;;;;;;14.35;80.23;100405.88;1790541;78;25722;-78
2022/09/25 09:49:28;;;;;;;18.50;14.18;;;;;;;14.45;79.57;100395.47;1797459;78;25777;-78
2022/09/25 09:52:18;;;;;;;22.40;15.85;;;;;;;14.51;79.94;100393.25;1787751;78;26377;-78
2022/09/25 09:55:08;;;;;;;21.23;15.50;;;;;;;14.61;79.74;100393.59;1789173;78;26032;-78
2022/09/25 09:57:46;;;;;;;21.33;16.77;;;;;;;14.70;79.70;100383.37;1785879;78;27456;-78
2022/09/25 10:00:17;;;;;;;25.17;16.73;;;;;;;14.80;79.10;100381.55;1792678;78;26506;-78
2022/09/25 10:03:05;;;;;;;;;;;;;;;14.85;78.85;100377.66;1794446;78;26302;-78
2022/09/25 10:05:46;;;;;;;19.07;12.40;;;;;;;14.89;78.84;100376.16;1785570;79;26516;-78
2022/09/25 10:08:12;;;;;;;19.95;14.45;;;;;;;14.94;77.76;100374.48;1789932;78;27064;-79
2022/09/25 10:10:43;;;;;;;14.78;10.43;;;;;;;15.02;77.51;100377.41;1793726;78;27581;-78
2022/09/25 10:13:31;;;;;;;19.10;11.35;;;;;;;15.08;77.14;100373.30;1791794;79;25965;-78
2022/09/25 10:16:22;;;;;;;15.15;10.80;;;;;;;15.18;75.92;100369.56;1787573;79;26313;-79
2022/09/25 10:19:10;;;;;;;16.82;11.15;;;;;;;15.26;75.66;100369.82;1769792;80;26544;-78
2022/09/25 10:21:59;;;;;;;13.58;10.05;;;;;;;15.33;75.25;100367.89;1781505;79;25906;-78
2022/09/25 10:25:01;;;;;;;13.38;10.08;;;;;;;15.39;74.60;100367.83;1846134;77;28224;-79
2022/09/25 10:27:40;;;;;;;12.30;9.58;;;;;;;15.49;73.94;100366.49;1776416;79;26435;-79
2022/09/25 10:30:11;;;;;;;14.93;9.18;;;;;;;15.56;73.36;100363.20;1771295;80;26044;-79
2022/09/25 10:32:49;;;;;;;13.48;10.63;;;;;;;15.62;73.45;100360.95;1775316;80;25845;-79
2022/09/25 10:35:38;;;;;;;14.25;9.38;;;;;;;15.67;72.71;100357.06;1777912;79;25775;-78
2022/09/25 10:38:26;;;;;;;12.75;9.25;;;;;;;15.73;72.36;100352.10;1767021;80;28283;-78
2022/09/25 10:41:02;;;;;;;13.72;9.20;;;;;;;15.77;71.14;100347.90;1781399;79;25814;-78
2022/09/25 10:43:29;;;;;;;15.05;10.10;;;;;;;15.79;70.47;100346.63;1839732;77;25780;-78
2022/09/25 10:46:14;;;;;;;15.03;8.70;;;;;;;15.82;70.40;100342.66;1845640;77;25754;-78
2022/09/25 10:51:26;;;;;;;12.70;8.60;;;;;;;15.92;69.14;100337.52;1843632;77;28229;-78
2022/09/25 10:54:15;;;;;;;8.93;6.92;;;;;;;15.99;69.14;100337.75;1846113;77;26065;-78
2022/09/25 10:56:42;;;;;;;11.03;7.53;;;;;;;16.07;69.09;100336.08;1774008;80;25524;-78
2022/09/25 10:59:17;;;;;;;10.98;7.22;;;;;;;16.12;68.30;100329.44;1762806;80;25842;-78
2022/09/25 11:01:45;;;;;;;9.23;7.92;;;;;;;16.17;67.53;100332.81;1790764;79;26454;-78
2022/09/25 11:04:19;;;;;;;10.78;7.58;;;;;;;16.20;67.28;100330.49;1786841;76;27441;-77
2022/09/25 11:06:52;;;;;;;9.80;7.55;;;;;;;16.26;66.68;100330.09;1749352;79;25942;-77
2022/09/25 11:09:22;;;;;;;9.83;7.20;;;;;;;16.30;67.18;100328.57;1764966;79;26437;-78
2022/09/25 11:11:52;;;;;;;10.32;6.75;;;;;;;16.34;66.35;100331.11;1762733;80;26388;-77
2022/09/25 11:14:31;;;;;;;9.28;7.28;;;;;;;16.37;66.43;100314.96;1754274;80;26051;-77
2022/09/25 11:17:00;;;;;;;8.98;6.97;;;;;;;16.41;66.05;100319.67;1760456;80;46304;-77
2022/09/25 11:19:34;;;;;;;10.50;8.25;;;;;;;16.42;65.48;100315.93;1767431;79;26422;-77
2022/09/25 11:22:24;;;;;;;10.08;7.85;;;;;;;16.37;64.78;100319.84;1754921;80;25845;-78
2022/09/25 11:25:01;;;;;;;10.45;8.10;;;;;;;16.33;64.88;100307.85;1759793;79;25796;-79
2022/09/25 11:27:47;;;;;;;11.43;8.80;;;;;;;16.35;64.72;100305.73;1761158;79;25823;-78
2022/09/25 11:30:20;;;;;;;12.03;8.88;;;;;;;16.35;64.75;100304.39;1773688;80;27478;-79
2022/09/25 11:33:07;;;;;;;11.95;8.83;;;;;;;16.34;64.37;100305.98;1730931;81;25743;-76
2022/09/25 11:36:11;;;;;;;11.28;7.95;;;;;;;16.27;64.89;100303.38;1736330;81;25732;-77
2022/09/25 11:41:36;;;;;;;9.17;7.93;;;;;;;16.16;64.11;100298.75;1750724;81;25827;-76
2022/09/25 11:44:20;;;;;;;10.00;8.20;;;;;;;16.18;64.15;100301.53;1745852;81;28712;-78
2022/09/25 11:47:15;;;;;;;10.20;7.17;;;;;;;16.23;64.79;100302.98;1739510;82;25789;-79
2022/09/25 11:49:42;;;;;;;8.65;7.05;;;;;;;16.28;64.03;100294.72;1740896;79;25760;-79
2022/09/25 11:52:36;;;;;;;9.43;7.72;;;;;;;16.28;63.60;100292.84;1751145;79;26620;-79
2022/09/25 11:55:26;;;;;;;8.40;7.50;;;;;;;16.28;63.80;100287.95;1761416;81;25553;-80
2022/09/25 11:58:25;;;;;;;13.80;7.97;;;;;;;16.31;64.19;100282.10;1773437;80;28519;-81
2022/09/25 12:01:15;;;;;;;11.10;7.17;;;;;;;16.41;64.52;100276.42;1721336;82;25791;-81
2022/09/25 12:04:14;;;;;;;15.08;6.90;;;;;;;16.50;64.09;100272.88;1807658;78;25873;-80